Time;durP1;ratioP1;P1;durP2;ratioP2;P2;SDS_P1;SDS_P2;PMS_P1;PMS_P2;Temp;Humidity;BMP_temperature;BMP_pressure;BME280_temperature;BME280_humidity;BME280_pressure;Samples;Min_cycle;Max_cycle;Signal;HPM_P1;HPM_P2
2023/09/02 00:24:02;;;;;;;12.13;10.90;;;13.50;99.90;;;;;;4642745;30;20228;-83
2023/09/02 00:54:28;;;;;;;12.00;10.60;;;13.40;99.90;;;;;;4544800;30;20623;-84
2023/09/02 01:19:34;;;;;;;12.73;10.73;;;13.40;99.90;;;;;;4520787;30;20227;-82
2023/09/02 01:39:57;;;;;;;12.23;10.93;;;13.40;99.90;;;;;;4460477;31;20342;-84
2023/09/02 02:15:43;;;;;;;14.20;12.80;;;13.10;99.90;;;;;;4730608;29;20335;-81
2023/09/02 02:45:56;;;;;;;17.93;15.93;;;12.80;99.90;;;;;;4697930;29;20211;-85
2023/09/02 03:11:26;;;;;;;19.73;17.17;;;12.50;99.90;;;;;;4579117;30;20370;-83
2023/09/02 03:31:20;;;;;;;19.37;16.57;;;12.20;99.90;;;;;;4496900;31;20920;-84
2023/09/02 03:56:57;;;;;;;19.97;16.87;;;11.90;99.90;;;;;;4531777;30;20311;-85
2023/09/02 04:37:39;;;;;;;22.20;19.90;;;12.00;99.90;;;;;;4755940;29;21836;-82
2023/09/02 05:08:00;;;;;;;21.97;18.87;;;12.90;99.90;;;;;;4810853;29;20532;-83
2023/09/02 05:33:21;;;;;;;19.80;15.00;;;14.30;99.90;;;;;;4569031;30;20255;-84
2023/09/02 06:09:01;;;;;;;12.50;11.20;;;16.60;99.90;;;;;;4721995;29;20217;-86
2023/09/02 06:39:20;;;;;;;8.77;7.73;;;18.00;93.80;;;;;;4631409;30;20640;-83
2023/09/02 07:04:48;;;;;;;8.50;7.53;;;19.00;91.00;;;;;;4850405;29;20233;-85
2023/09/02 07:24:44;;;;;;;6.73;4.57;;;19.70;83.00;;;;;;4672330;30;20530;-84
2023/09/02 07:50:28;;;;;;;3.90;3.50;;;20.90;71.10;;;;;;4618458;30;20473;-84
2023/09/02 07:54:52;;;;;;;5.50;3.25;;;20.90;66.80;;;;;;4603315;30;20638;-85
2023/09/02 08:15:27;;;;;;;4.57;3.35;;;21.00;65.10;;;;;;4629564;30;20240;-85
2023/09/02 08:36:03;;;;;;;6.03;3.53;;;20.90;64.10;;;;;;4559672;30;20217;-83
2023/09/02 09:06:23;;;;;;;3.55;3.13;;;21.00;64.90;;;;;;4608369;30;20252;-81
2023/09/02 09:31:39;;;;;;;5.82;3.25;;;21.30;64.70;;;;;;4602422;30;20507;-83
2023/09/02 10:02:18;;;;;;;4.07;3.08;;;21.40;63.60;;;;;;4627425;30;20293;-82
2023/09/02 10:22:22;;;;;;;4.78;3.65;;;21.70;63.00;;;;;;4568214;30;20370;-84
2023/09/02 10:52:59;;;;;;;2.92;2.72;;;21.90;61.10;;;;;;4705256;29;20249;-83
2023/09/02 10:57:23;;;;;;;3.30;3.00;;;22.00;61.40;;;;;;4688127;29;20602;-81
2023/09/02 11:27:49;;;;;;;3.70;2.75;;;22.20;59.50;;;;;;4671111;29;20652;-85
2023/09/02 12:24:15;;;;;;;3.58;2.50;;;23.70;56.90;;;;;;4632050;30;20213;-84
2023/09/02 12:54:09;;;;;;;4.32;2.90;;;24.20;55.40;;;;;;4663032;30;20583;-84
2023/09/02 13:14:49;;;;;;;3.33;2.60;;;23.80;54.70;;;;;;4605512;30;20426;-82
2023/09/02 13:44:46;;;;;;;3.33;2.45;;;24.30;53.90;;;;;;4698901;29;20703;-84
2023/09/02 14:10:08;;;;;;;3.15;2.63;;;24.00;53.60;;;;;;4632847;30;20699;-89
2023/09/02 14:30:42;;;;;;;2.50;2.20;;;24.60;52.70;;;;;;4577766;30;21339;-85
2023/09/02 15:00:49;;;;;;;3.80;2.40;;;26.50;50.90;;;;;;4560465;30;20631;-84
2023/09/02 15:26:49;;;;;;;3.63;2.30;;;23.00;51.80;;;;;;4704612;29;20187;-86
2023/09/02 15:52:09;;;;;;;2.95;2.20;;;22.40;52.50;;;;;;4701205;29;20450;-85
2023/09/02 16:12:25;;;;;;;2.55;2.35;;;21.60;54.70;;;;;;4680200;30;20211;-85
2023/09/02 16:52:26;;;;;;;3.23;2.90;;;20.50;58.40;;;;;;4764016;29;20215;-84
2023/09/02 17:13:11;;;;;;;4.43;3.27;;;19.80;67.80;;;;;;4671548;30;20241;-86
2023/09/02 17:38:45;;;;;;;5.57;3.50;;;18.10;90.80;;;;;;4670118;30;20216;-85
2023/09/02 17:59:01;;;;;;;3.80;3.47;;;17.10;94.50;;;;;;4598530;30;20240;-86
2023/09/02 18:19:24;;;;;;;8.67;5.23;;;16.50;99.90;;;;;;4688136;30;20207;-82
2023/09/02 18:23:46;;;;;;;10.23;5.83;;;16.30;99.90;;;;;;4651602;29;20221;-83
2023/09/02 18:49:19;;;;;;;7.37;6.57;;;15.60;99.90;;;;;;4541026;30;20601;-84
2023/09/02 19:58:20;;;;;;;14.03;11.33;;;14.40;99.90;;;;;;6152858;22;20330;-81
2023/09/02 20:19:21;;;;;;;17.13;14.60;;;14.00;99.90;;;;;;6054201;23;20779;-83
2023/09/02 20:23:41;;;;;;;18.10;15.30;;;14.00;99.90;;;;;;6000565;23;20546;-84
2023/09/02 20:49:03;;;;;;;21.87;16.90;;;13.60;99.90;;;;;;5642494;24;20516;-82
2023/09/02 21:14:58;;;;;;;21.40;17.17;;;13.40;99.90;;;;;;5844296;24;20300;-82
2023/09/02 21:49:58;;;;;;;22.27;19.63;;;13.30;99.90;;;;;;6051779;23;20276;-82
2023/09/02 23:21:54;;;;;;;26.50;21.13;;;12.30;99.90;;;;;;6139272;22;20613;-86
2023/09/02 23:52:18;;;;;;;26.33;21.53;;;12.10;99.90;;;;;;5971669;23;20268;-86
